createdAt,value
2019-04-06T00:01:14.388Z,11.90
2019-04-06T00:06:17.940Z,11.27
2019-04-06T00:11:21.196Z,11.87
2019-04-06T00:16:24.507Z,15.90
2019-04-06T00:21:28.219Z,16.87
2019-04-06T00:26:31.549Z,15.40
2019-04-06T00:31:45.086Z,10.90
2019-04-06T00:36:48.420Z,15.30
2019-04-06T00:41:51.675Z,22.37
2019-04-06T00:46:55.308Z,13.40
2019-04-06T00:51:58.571Z,11.60
2019-04-06T00:57:02.282Z,13.00
2019-04-06T01:02:06.372Z,14.93
2019-04-06T01:07:09.696Z,11.67
2019-04-06T01:12:12.952Z,14.53
2019-04-06T01:17:16.565Z,12.10
2019-04-06T01:22:19.816Z,12.60
2019-04-06T01:27:23.075Z,13.53
2019-04-06T01:32:26.413Z,12.57
2019-04-06T01:37:29.676Z,15.33
2019-04-06T01:42:32.936Z,12.97
2019-04-06T01:47:36.292Z,12.63
2019-04-06T01:52:39.617Z,13.37
2019-04-06T01:57:42.932Z,13.30
2019-04-06T02:02:50.923Z,10.77
2019-04-06T02:07:54.248Z,14.67
2019-04-06T02:12:57.867Z,12.83
2019-04-06T02:18:01.105Z,13.50
2019-04-06T02:23:04.431Z,12.53
2019-04-06T02:28:07.673Z,12.63
2019-04-06T02:33:14.710Z,12.93
2019-04-06T02:43:41.116Z,13.07
2019-04-06T02:48:44.895Z,11.87
2019-04-06T02:53:48.520Z,13.00
2019-04-06T02:58:51.844Z,11.87
2019-04-06T03:03:55.326Z,11.97
2019-04-06T03:08:58.678Z,13.50
2019-04-06T03:14:01.971Z,10.67
2019-04-06T03:19:05.312Z,12.33
2019-04-06T03:24:08.519Z,14.30
2019-04-06T03:29:11.778Z,11.73
2019-04-06T03:34:20.745Z,11.70
2019-04-06T03:39:19.954Z,12.73
2019-04-06T03:44:23.275Z,11.37
2019-04-06T03:49:26.939Z,12.33
2019-04-06T03:54:30.198Z,11.17
2019-04-06T03:59:33.454Z,14.30
2019-04-06T04:04:37.090Z,12.57
2019-04-06T04:09:40.544Z,13.13
2019-04-06T04:14:44.289Z,14.07
2019-04-06T04:19:47.918Z,13.13
2019-04-06T04:24:51.175Z,12.20
2019-04-06T04:29:54.856Z,12.83
2019-04-06T04:34:59.086Z,13.13
2019-04-06T04:40:02.413Z,12.90
2019-04-06T04:45:05.891Z,12.50
2019-04-06T04:50:09.160Z,13.73
2019-04-06T04:55:12.493Z,14.27
2019-04-06T05:00:15.826Z,13.50
2019-04-06T05:05:19.395Z,16.40
2019-04-06T05:10:22.661Z,13.87
2019-04-06T05:15:27.466Z,14.20
2019-04-06T05:20:30.805Z,14.47
2019-04-06T05:25:34.062Z,13.97
2019-04-06T05:30:37.336Z,16.87
2019-04-06T05:35:40.677Z,14.90
2019-04-06T05:40:43.937Z,15.40
2019-04-06T05:45:47.219Z,15.90
2019-04-06T05:50:50.498Z,14.40
2019-04-06T05:55:53.771Z,15.27
2019-04-06T06:00:57.092Z,14.97
2019-04-06T06:06:00.373Z,20.73
2019-04-06T06:11:03.946Z,20.73
2019-04-06T06:16:07.802Z,19.13
2019-04-06T06:21:11.218Z,17.47
2019-04-06T06:26:14.655Z,16.87
2019-04-06T06:31:18.022Z,17.23
2019-04-06T06:36:21.369Z,14.80
2019-04-06T06:41:24.940Z,16.60
2019-04-06T06:46:28.606Z,13.67
2019-04-06T06:51:31.897Z,12.77
2019-04-06T06:56:35.285Z,13.50
2019-04-06T07:01:38.742Z,15.97
2019-04-06T07:06:42.057Z,13.80
2019-04-06T07:11:45.405Z,15.10
2019-04-06T07:16:48.802Z,14.50
2019-04-06T07:21:52.409Z,13.03
2019-04-06T07:26:55.681Z,13.93
2019-04-06T07:31:58.948Z,11.00
2019-04-06T07:37:02.538Z,11.73
2019-04-06T07:42:05.976Z,12.53
2019-04-06T07:47:09.249Z,11.50
2019-04-06T07:52:12.836Z,11.53
2019-04-06T07:57:16.147Z,10.67
2019-04-06T08:02:19.569Z,11.00
2019-04-06T08:07:22.872Z,13.33
2019-04-06T08:12:26.711Z,16.23
2019-04-06T08:17:30.037Z,15.73
2019-04-06T08:22:33.297Z,15.90
2019-04-06T08:27:36.993Z,18.80
2019-04-06T08:32:40.270Z,20.30
2019-04-06T08:37:43.877Z,15.13
2019-04-06T08:42:47.469Z,14.70
2019-04-06T08:47:50.846Z,12.63
2019-04-06T08:52:54.219Z,12.77
2019-04-06T08:57:57.973Z,13.67
2019-04-06T09:03:01.170Z,12.30
2019-04-06T09:08:04.502Z,13.63
2019-04-06T09:13:07.769Z,11.77
2019-04-06T09:18:11.383Z,11.77
2019-04-06T09:23:14.634Z,10.97
2019-04-06T09:28:17.885Z,12.67
2019-04-06T09:33:21.139Z,13.47
2019-04-06T09:38:24.405Z,13.30
2019-04-06T09:43:27.798Z,14.70
2019-04-06T09:48:44.799Z,14.43
2019-04-06T09:54:04.577Z,15.13
2019-04-06T09:59:11.971Z,16.23
2019-04-06T10:04:33.699Z,15.40
2019-04-06T10:09:55.136Z,18.73
2019-04-06T10:15:00.047Z,21.50
2019-04-06T10:20:20.728Z,19.43
2019-04-06T10:25:34.702Z,18.10
2019-04-06T10:30:54.722Z,21.33
2019-04-06T10:36:08.724Z,22.00
2019-04-06T10:41:14.008Z,20.57
2019-04-06T10:46:34.216Z,19.27
2019-04-06T10:51:55.197Z,21.30
2019-04-06T10:57:00.091Z,21.17
2019-04-06T11:02:23.144Z,19.30
2019-04-06T11:07:37.033Z,18.23
2019-04-06T11:12:42.262Z,16.77
2019-04-06T11:17:53.164Z,16.07
2019-04-06T11:23:07.310Z,14.77
2019-04-06T11:28:12.214Z,17.07
2019-04-06T11:33:26.183Z,16.63
2019-04-06T11:38:31.781Z,16.83
2019-04-06T11:43:53.818Z,16.73
2019-04-06T11:49:11.170Z,19.20
2019-04-06T11:54:32.954Z,19.70
2019-04-06T11:59:54.631Z,17.67
2019-04-06T12:04:59.643Z,21.03
2019-04-06T12:10:19.503Z,21.07
2019-04-06T12:15:36.557Z,22.00
2019-04-06T12:20:44.785Z,21.13
2019-04-06T12:25:49.841Z,23.83
2019-04-06T12:31:07.433Z,23.67
2019-04-06T12:36:21.540Z,22.43
2019-04-06T12:41:42.845Z,21.40
2019-04-06T12:46:48.054Z,22.73
2019-04-06T12:52:01.984Z,20.83
2019-04-06T12:57:06.878Z,21.57
2019-04-06T13:02:17.653Z,21.93
2019-04-06T13:07:31.841Z,21.77
2019-04-06T13:12:51.738Z,19.73
2019-04-06T13:17:59.504Z,20.70
2019-04-06T13:23:07.823Z,20.40
2019-04-06T13:28:24.970Z,21.40
2019-04-06T13:33:42.126Z,21.33
2019-04-06T13:38:47.038Z,20.13
2019-04-06T13:44:03.930Z,21.00
2019-04-06T13:49:18.105Z,20.27
2019-04-06T13:54:32.158Z,19.70
2019-04-06T13:59:43.247Z,19.77
2019-04-06T14:05:05.123Z,20.47
2019-04-06T14:10:22.090Z,20.70
2019-04-06T14:15:36.093Z,24.03
2019-04-06T14:20:41.052Z,24.00
2019-04-06T14:25:58.326Z,20.67
2019-04-06T14:31:28.278Z,23.50
2019-04-06T14:36:41.142Z,25.37
2019-04-06T14:41:49.700Z,26.83
2019-04-06T14:46:54.759Z,26.20
2019-04-06T14:51:59.986Z,28.03
2019-04-06T14:57:11.368Z,29.40
2019-04-06T15:02:16.745Z,34.43
2019-04-06T15:07:24.941Z,35.27
2019-04-06T15:12:32.792Z,29.47
2019-04-06T15:17:54.866Z,31.53
2019-04-06T15:23:06.325Z,32.57
2019-04-06T15:28:11.764Z,28.40
2019-04-06T15:33:16.785Z,30.97
2019-04-06T15:38:23.689Z,27.30
2019-04-06T15:43:34.952Z,31.47
2019-04-06T15:48:41.211Z,26.30
2019-04-06T15:54:01.573Z,26.37
2019-04-06T15:59:09.267Z,29.40
2019-04-06T16:04:20.117Z,29.67
2019-04-06T16:09:41.916Z,27.00
2019-04-06T16:15:04.228Z,25.20
2019-04-06T16:20:26.360Z,26.20
2019-04-06T16:25:31.268Z,26.73
2019-04-06T16:30:50.825Z,25.53
2019-04-06T16:35:55.040Z,24.93
2019-04-06T16:41:16.859Z,23.37
2019-04-06T16:46:38.023Z,21.83
2019-04-06T16:51:47.017Z,23.97
2019-04-06T16:56:51.966Z,23.33
2019-04-06T17:02:22.196Z,21.03
2019-04-06T17:07:29.100Z,22.37
2019-04-06T17:12:50.693Z,22.70
2019-04-06T17:17:55.610Z,22.80
2019-04-06T17:23:00.510Z,24.20
2019-04-06T17:28:05.552Z,23.97
2019-04-06T17:33:13.824Z,26.20
2019-04-06T17:38:19.152Z,29.60
2019-04-06T17:43:39.301Z,36.17
2019-04-06T17:49:02.514Z,28.27
2019-04-06T17:54:22.843Z,29.33
2019-04-06T17:59:40.477Z,37.20
2019-04-06T18:05:01.861Z,39.77
2019-04-06T18:10:16.378Z,32.20
2019-04-06T18:15:20.105Z,39.67
2019-04-06T18:20:23.403Z,48.73
2019-04-06T18:25:27.081Z,31.60
2019-04-06T18:30:30.540Z,44.70
2019-04-06T18:35:33.968Z,42.83
2019-04-06T18:45:50.290Z,30.90
2019-04-06T18:50:53.858Z,28.90
2019-04-06T18:55:57.126Z,31.37
2019-04-06T19:01:00.781Z,27.30
2019-04-06T19:06:04.806Z,25.13
2019-04-06T19:11:08.277Z,27.47
2019-04-06T19:16:11.933Z,31.97
2019-04-06T19:21:15.263Z,36.07
2019-04-06T19:26:19.465Z,40.87
2019-04-06T19:31:22.882Z,29.23
2019-04-06T19:36:26.159Z,31.97
2019-04-06T19:41:29.497Z,32.53
2019-04-06T19:46:32.885Z,30.23
2019-04-06T19:51:36.504Z,61.63
2019-04-06T19:56:40.793Z,32.00
2019-04-06T20:01:45.772Z,35.03
2019-04-06T20:06:50.455Z,28.13
2019-04-06T20:12:04.154Z,33.20
2019-04-06T20:17:00.408Z,31.97
2019-04-06T20:22:10.288Z,32.83
2019-04-06T20:27:13.728Z,31.57
2019-04-06T20:32:17.559Z,29.80
2019-04-06T20:37:20.830Z,28.20
2019-04-06T20:42:24.738Z,32.07
2019-04-06T20:47:28.015Z,34.33
2019-04-06T20:52:31.726Z,34.00
2019-04-06T20:57:35.340Z,30.20
2019-04-06T21:02:39.252Z,32.40
2019-04-06T21:07:42.602Z,33.10
2019-04-06T21:12:45.973Z,32.47
2019-04-06T21:17:49.404Z,38.60
2019-04-06T21:22:52.868Z,37.40
2019-04-06T21:27:56.818Z,35.20
2019-04-06T21:33:00.421Z,40.83
2019-04-06T21:38:03.787Z,38.90
2019-04-06T21:43:07.020Z,36.50
2019-04-06T21:48:10.458Z,37.87
2019-04-06T21:53:15.016Z,36.73
2019-04-06T21:58:18.751Z,36.20
2019-04-06T22:03:23.949Z,36.33
2019-04-06T22:08:27.181Z,36.23
2019-04-06T22:13:31.960Z,36.40
2019-04-06T22:18:35.207Z,32.20
2019-04-06T22:23:42.059Z,37.43
2019-04-06T22:28:43.502Z,40.63
2019-04-06T22:33:46.778Z,36.40
2019-04-06T22:38:50.043Z,36.53
2019-04-06T22:43:53.324Z,39.80
2019-04-06T22:48:56.586Z,37.87
2019-04-06T22:54:00.332Z,37.97
2019-04-06T22:59:03.676Z,35.23
2019-04-06T23:04:12.040Z,33.53
2019-04-06T23:09:15.671Z,40.67
2019-04-06T23:14:19.160Z,32.97
2019-04-06T23:19:22.607Z,37.63
2019-04-06T23:24:26.269Z,35.70
2019-04-06T23:29:29.709Z,40.93
2019-04-06T23:34:33.078Z,37.97
2019-04-06T23:39:36.350Z,38.13
2019-04-06T23:44:39.882Z,37.20
2019-04-06T23:49:43.444Z,40.77
2019-04-06T23:54:47.394Z,37.87
2019-04-06T23:59:51.150Z,42.73
